sensor_id;sensor_type;location;lat;lon;timestamp;pressure;altitude;pressure_sealevel;temperature;humidity
21359;BME280;13506;50.852;20.632;2023-02-28T00:01:27;99503.03;;;-1.07;63.89
21359;BME280;13506;50.852;20.632;2023-02-28T00:03:55;99504.69;;;-1.02;64.01
21359;BME280;13506;50.852;20.632;2023-02-28T00:06:25;99511.56;;;-1.03;63.46
21359;BME280;13506;50.852;20.632;2023-02-28T00:08:53;99514.13;;;-1.01;63.78
21359;BME280;13506;50.852;20.632;2023-02-28T00:11:21;99515.84;;;-1.03;63.49
21359;BME280;13506;50.852;20.632;2023-02-28T00:13:49;99509.16;;;-1.29;63.50
21359;BME280;13506;50.852;20.632;2023-02-28T00:16:19;99509.94;;;-1.18;64.16
21359;BME280;13506;50.852;20.632;2023-02-28T00:18:47;99513.38;;;-1.19;64.31
21359;BME280;13506;50.852;20.632;2023-02-28T00:21:16;99515.91;;;-1.17;64.27
21359;BME280;13506;50.852;20.632;2023-02-28T00:23:46;99505.63;;;-1.13;63.30
21359;BME280;13506;50.852;20.632;2023-02-28T00:26:14;99512.47;;;-1.10;64.09
21359;BME280;13506;50.852;20.632;2023-02-28T00:28:45;99504.72;;;-1.07;63.88
21359;BME280;13506;50.852;20.632;2023-02-28T00:31:13;99503.88;;;-1.06;64.37
21359;BME280;13506;50.852;20.632;2023-02-28T00:33:41;99509.91;;;-1.12;65.75
21359;BME280;13506;50.852;20.632;2023-02-28T00:36:10;99505.75;;;-1.39;64.80
21359;BME280;13506;50.852;20.632;2023-02-28T00:38:39;99514.47;;;-1.68;64.34
21359;BME280;13506;50.852;20.632;2023-02-28T00:41:09;99510.97;;;-1.53;65.32
21359;BME280;13506;50.852;20.632;2023-02-28T00:43:38;99510.09;;;-1.46;64.72
21359;BME280;13506;50.852;20.632;2023-02-28T00:46:07;99512.66;;;-1.44;64.45
21359;BME280;13506;50.852;20.632;2023-02-28T00:48:35;99506.69;;;-1.54;64.91
21359;BME280;13506;50.852;20.632;2023-02-28T00:51:04;99516.97;;;-1.51;65.46
21359;BME280;13506;50.852;20.632;2023-02-28T00:53:31;99507.56;;;-1.58;64.85
21359;BME280;13506;50.852;20.632;2023-02-28T00:56:00;99511.81;;;-1.52;64.84
21359;BME280;13506;50.852;20.632;2023-02-28T00:58:29;99515.22;;;-1.47;65.12
21359;BME280;13506;50.852;20.632;2023-02-28T01:00:58;99516.97;;;-1.51;64.90
21359;BME280;13506;50.852;20.632;2023-02-28T01:03:26;99516.97;;;-1.57;65.98
21359;BME280;13506;50.852;20.632;2023-02-28T01:05:54;99522.13;;;-1.55;66.29
21359;BME280;13506;50.852;20.632;2023-02-28T01:08:22;99520.38;;;-1.50;65.67
21359;BME280;13506;50.852;20.632;2023-02-28T01:10:51;99515.28;;;-1.62;65.05
21359;BME280;13506;50.852;20.632;2023-02-28T01:13:19;99506.72;;;-1.60;65.51
21359;BME280;13506;50.852;20.632;2023-02-28T01:15:53;99512.72;;;-1.64;65.67
21359;BME280;13506;50.852;20.632;2023-02-28T01:18:22;99515.34;;;-1.72;66.29
21359;BME280;13506;50.852;20.632;2023-02-28T01:20:51;99511.06;;;-1.74;67.10
21359;BME280;13506;50.852;20.632;2023-02-28T01:23:19;99511.09;;;-1.83;67.17
21359;BME280;13506;50.852;20.632;2023-02-28T01:25:48;99504.25;;;-1.80;66.74
21359;BME280;13506;50.852;20.632;2023-02-28T01:28:16;99515.31;;;-1.69;66.25
21359;BME280;13506;50.852;20.632;2023-02-28T01:30:49;99519.66;;;-1.91;67.75
21359;BME280;13506;50.852;20.632;2023-02-28T01:33:17;99517.94;;;-1.98;68.20
21359;BME280;13506;50.852;20.632;2023-02-28T01:35:45;99509.38;;;-1.84;67.43
21359;BME280;13506;50.852;20.632;2023-02-28T01:38:13;99516.25;;;-1.93;67.95
21359;BME280;13506;50.852;20.632;2023-02-28T01:40:42;99513.69;;;-1.91;68.55
21359;BME280;13506;50.852;20.632;2023-02-28T01:43:19;99501.75;;;-2.06;68.13
21359;BME280;13506;50.852;20.632;2023-02-28T01:45:49;99513.75;;;-2.19;67.66
21359;BME280;13506;50.852;20.632;2023-02-28T01:48:17;99512.03;;;-2.14;69.32
21359;BME280;13506;50.852;20.632;2023-02-28T01:50:47;99506.91;;;-2.28;69.48
21359;BME280;13506;50.852;20.632;2023-02-28T01:53:19;99506.06;;;-2.14;69.41
21359;BME280;13506;50.852;20.632;2023-02-28T01:55:51;99508.59;;;-2.11;69.52
21359;BME280;13506;50.852;20.632;2023-02-28T01:58:21;99509.44;;;-2.01;68.81
21359;BME280;13506;50.852;20.632;2023-02-28T02:00:51;99508.56;;;-1.99;68.34
21359;BME280;13506;50.852;20.632;2023-02-28T02:03:20;99502.56;;;-1.95;68.15
21359;BME280;13506;50.852;20.632;2023-02-28T02:05:48;99502.56;;;-1.92;68.30
21359;BME280;13506;50.852;20.632;2023-02-28T02:08:20;99512.88;;;-2.12;69.22
21359;BME280;13506;50.852;20.632;2023-02-28T02:10:51;99514.56;;;-2.04;69.16
21359;BME280;13506;50.852;20.632;2023-02-28T02:13:42;99508.59;;;-2.13;69.91
21359;BME280;13506;50.852;20.632;2023-02-28T02:16:28;99513.72;;;-2.11;70.07
21359;BME280;13506;50.852;20.632;2023-02-28T02:19:21;99518.00;;;-2.16;70.16
21359;BME280;13506;50.852;20.632;2023-02-28T02:22:20;99516.28;;;-2.11;69.75
21359;BME280;13506;50.852;20.632;2023-02-28T02:25:15;99512.00;;;-2.09;70.36
21359;BME280;13506;50.852;20.632;2023-02-28T02:31:21;99523.94;;;-1.99;70.23
21359;BME280;13506;50.852;20.632;2023-02-28T02:34:16;99526.50;;;-2.02;70.43
21359;BME280;13506;50.852;20.632;2023-02-28T02:36:53;99527.44;;;-2.29;71.96
21359;BME280;13506;50.852;20.632;2023-02-28T02:39:31;99521.47;;;-2.66;73.24
21359;BME280;13506;50.852;20.632;2023-02-28T02:42:03;99521.47;;;-2.60;73.43
21359;BME280;13506;50.852;20.632;2023-02-28T02:44:39;99515.47;;;-2.53;72.82
21359;BME280;13506;50.852;20.632;2023-02-28T02:47:11;99524.03;;;-2.65;73.43
21359;BME280;13506;50.852;20.632;2023-02-28T02:49:47;99519.72;;;-2.78;73.73
21359;BME280;13506;50.852;20.632;2023-02-28T02:52:20;99530.84;;;-2.64;73.98
21359;BME280;13506;50.852;20.632;2023-02-28T02:54:52;99524.84;;;-2.67;73.77
21359;BME280;13506;50.852;20.632;2023-02-28T02:57:24;99529.16;;;-2.70;74.04
21359;BME280;13506;50.852;20.632;2023-02-28T02:59:56;99532.56;;;-2.58;73.17
21359;BME280;13506;50.852;20.632;2023-02-28T03:02:26;99530.84;;;-2.69;73.33
21359;BME280;13506;50.852;20.632;2023-02-28T03:05:04;99534.28;;;-2.48;72.58
21359;BME280;13506;50.852;20.632;2023-02-28T03:07:34;99530.84;;;-2.53;72.72
21359;BME280;13506;50.852;20.632;2023-02-28T03:12:52;99526.56;;;-2.79;72.98
21359;BME280;13506;50.852;20.632;2023-02-28T03:15:29;99525.69;;;-2.82;73.07
21359;BME280;13506;50.852;20.632;2023-02-28T03:18:03;99530.88;;;-2.72;72.40
21359;BME280;13506;50.852;20.632;2023-02-28T03:20:40;99527.44;;;-2.69;72.75
21359;BME280;13506;50.852;20.632;2023-02-28T03:23:17;99517.19;;;-2.72;73.17
21359;BME280;13506;50.852;20.632;2023-02-28T03:25:56;99524.00;;;-2.91;74.01
21359;BME280;13506;50.852;20.632;2023-02-28T03:28:32;99529.13;;;-3.03;75.04
21359;BME280;13506;50.852;20.632;2023-02-28T03:31:10;99528.22;;;-3.08;75.55
21359;BME280;13506;50.852;20.632;2023-02-28T03:33:43;99535.91;;;-3.07;75.58
21359;BME280;13506;50.852;20.632;2023-02-28T03:36:18;99531.63;;;-3.19;75.86
21359;BME280;13506;50.852;20.632;2023-02-28T03:38:50;99537.63;;;-3.14;76.47
21359;BME280;13506;50.852;20.632;2023-02-28T03:41:23;99529.91;;;-3.26;77.04
21359;BME280;13506;50.852;20.632;2023-02-28T03:43:55;99540.06;;;-3.40;78.29
21359;BME280;13506;50.852;20.632;2023-02-28T03:46:27;99532.44;;;-3.29;78.30
21359;BME280;13506;50.852;20.632;2023-02-28T03:49:00;99529.88;;;-3.35;78.68
21359;BME280;13506;50.852;20.632;2023-02-28T03:51:31;99522.09;;;-3.57;80.59
21359;BME280;13506;50.852;20.632;2023-02-28T03:54:07;99527.28;;;-3.40;79.93
21359;BME280;13506;50.852;20.632;2023-02-28T03:56:41;99528.97;;;-3.46;80.31
21359;BME280;13506;50.852;20.632;2023-02-28T03:59:14;99530.66;;;-3.56;80.55
21359;BME280;13506;50.852;20.632;2023-02-28T04:01:47;99529.78;;;-3.55;80.46
21359;BME280;13506;50.852;20.632;2023-02-28T04:04:16;99524.66;;;-3.60;81.01
21359;BME280;13506;50.852;20.632;2023-02-28T04:06:46;99527.22;;;-3.64;80.45
21359;BME280;13506;50.852;20.632;2023-02-28T04:09:17;99529.75;;;-3.66;80.62
21359;BME280;13506;50.852;20.632;2023-02-28T04:11:48;99531.53;;;-3.46;80.28
21359;BME280;13506;50.852;20.632;2023-02-28T04:14:18;99526.47;;;-3.37;79.10
21359;BME280;13506;50.852;20.632;2023-02-28T04:16:46;99528.19;;;-3.30;78.00
21359;BME280;13506;50.852;20.632;2023-02-28T04:19:15;99528.19;;;-3.30;78.23
21359;BME280;13506;50.852;20.632;2023-02-28T04:21:46;99528.19;;;-3.30;78.78
21359;BME280;13506;50.852;20.632;2023-02-28T04:24:16;99520.53;;;-3.22;78.03
21359;BME280;13506;50.852;20.632;2023-02-28T04:26:47;99524.72;;;-3.47;77.85
21359;BME280;13506;50.852;20.632;2023-02-28T04:29:20;99534.03;;;-3.62;79.19
21359;BME280;13506;50.852;20.632;2023-02-28T04:31:48;99531.47;;;-3.62;79.85
21359;BME280;13506;50.852;20.632;2023-02-28T04:34:16;99544.16;;;-3.88;80.78
21359;BME280;13506;50.852;20.632;2023-02-28T04:36:46;99545.91;;;-3.79;81.46
21359;BME280;13506;50.852;20.632;2023-02-28T04:39:15;99543.31;;;-3.85;81.00
21359;BME280;13506;50.852;20.632;2023-02-28T04:41:45;99538.19;;;-3.82;81.04
21359;BME280;13506;50.852;20.632;2023-02-28T04:44:12;99538.19;;;-3.82;80.90
21359;BME280;13506;50.852;20.632;2023-02-28T04:46:41;99544.19;;;-3.74;81.55
21359;BME280;13506;50.852;20.632;2023-02-28T04:49:09;99537.44;;;-3.69;80.92
21359;BME280;13506;50.852;20.632;2023-02-28T04:51:38;99531.44;;;-3.71;80.66
21359;BME280;13506;50.852;20.632;2023-02-28T04:54:08;99547.66;;;-3.69;80.29
21359;BME280;13506;50.852;20.632;2023-02-28T04:56:36;99548.56;;;-3.58;80.08
21359;BME280;13506;50.852;20.632;2023-02-28T04:59:04;99542.59;;;-3.55;79.08
21359;BME280;13506;50.852;20.632;2023-02-28T05:01:33;99543.41;;;-3.59;79.67
21359;BME280;13506;50.852;20.632;2023-02-28T05:04:04;99544.28;;;-3.56;78.96
21359;BME280;13506;50.852;20.632;2023-02-28T05:06:33;99559.66;;;-3.46;78.91
21359;BME280;13506;50.852;20.632;2023-02-28T05:09:01;99554.56;;;-3.42;78.45
21359;BME280;13506;50.852;20.632;2023-02-28T05:11:33;99554.53;;;-3.56;78.97
21359;BME280;13506;50.852;20.632;2023-02-28T05:14:01;99552.00;;;-3.49;77.92
21359;BME280;13506;50.852;20.632;2023-02-28T05:16:31;99546.03;;;-3.50;77.73
21359;BME280;13506;50.852;20.632;2023-02-28T05:18:59;99546.03;;;-3.52;78.17
21359;BME280;13506;50.852;20.632;2023-02-28T05:21:29;99557.06;;;-3.57;78.49
21359;BME280;13506;50.852;20.632;2023-02-28T05:24:00;99569.91;;;-3.45;78.10
21359;BME280;13506;50.852;20.632;2023-02-28T05:26:30;99565.69;;;-3.38;77.11
21359;BME280;13506;50.852;20.632;2023-02-28T05:28:58;99568.28;;;-3.31;77.19
21359;BME280;13506;50.852;20.632;2023-02-28T05:31:26;99565.75;;;-3.24;76.88
21359;BME280;13506;50.852;20.632;2023-02-28T05:33:54;99572.59;;;-3.13;76.38
21359;BME280;13506;50.852;20.632;2023-02-28T05:36:22;99579.44;;;-3.04;75.73
21359;BME280;13506;50.852;20.632;2023-02-28T05:38:51;99581.16;;;-2.97;75.38
21359;BME280;13506;50.852;20.632;2023-02-28T05:41:20;99567.56;;;-2.77;77.06
21359;BME280;13506;50.852;20.632;2023-02-28T05:43:49;99577.81;;;-2.39;75.38
21359;BME280;13506;50.852;20.632;2023-02-28T05:46:18;99569.25;;;-2.01;74.80
21359;BME280;13506;50.852;20.632;2023-02-28T05:48:48;99571.75;;;-1.67;72.46
21359;BME280;13506;50.852;20.632;2023-02-28T05:51:16;99572.44;;;-1.28;71.83
21359;BME280;13506;50.852;20.632;2023-02-28T05:53:44;99590.22;;;-0.88;70.27
21359;BME280;13506;50.852;20.632;2023-02-28T05:56:12;99589.09;;;-0.44;67.87
21359;BME280;13506;50.852;20.632;2023-02-28T05:58:40;99592.19;;;-0.05;64.43
21359;BME280;13506;50.852;20.632;2023-02-28T06:01:26;99584.78;;;0.48;66.21
21359;BME280;13506;50.852;20.632;2023-02-28T06:03:58;99592.03;;;0.91;63.71
21359;BME280;13506;50.852;20.632;2023-02-28T06:06:27;99591.31;;;1.42;62.22
21359;BME280;13506;50.852;20.632;2023-02-28T06:08:56;99594.75;;;1.95;60.65
21359;BME280;13506;50.852;20.632;2023-02-28T06:11:24;99600.34;;;2.21;59.05
21359;BME280;13506;50.852;20.632;2023-02-28T06:13:54;99600.75;;;2.47;57.47
21359;BME280;13506;50.852;20.632;2023-02-28T06:16:24;99609.34;;;2.91;57.85
21359;BME280;13506;50.852;20.632;2023-02-28T06:18:52;99618.94;;;3.26;56.19
21359;BME280;13506;50.852;20.632;2023-02-28T06:21:22;99624.97;;;3.66;55.88
21359;BME280;13506;50.852;20.632;2023-02-28T06:23:50;99618.75;;;4.07;53.59
21359;BME280;13506;50.852;20.632;2023-02-28T06:26:20;99614.34;;;4.43;52.67
21359;BME280;13506;50.852;20.632;2023-02-28T06:28:48;99618.59;;;4.79;52.32
21359;BME280;13506;50.852;20.632;2023-02-28T06:31:17;99620.88;;;5.21;50.62
21359;BME280;13506;50.852;20.632;2023-02-28T06:33:47;99621.44;;;5.85;49.38
21359;BME280;13506;50.852;20.632;2023-02-28T06:36:16;99618.94;;;6.59;48.68
21359;BME280;13506;50.852;20.632;2023-02-28T06:38:45;99610.78;;;7.41;46.51
21359;BME280;13506;50.852;20.632;2023-02-28T06:41:18;99617.50;;;8.31;44.20
21359;BME280;13506;50.852;20.632;2023-02-28T06:43:45;99609.63;;;9.31;43.07
21359;BME280;13506;50.852;20.632;2023-02-28T06:46:14;99615.31;;;10.29;43.04
21359;BME280;13506;50.852;20.632;2023-02-28T06:48:43;99616.50;;;11.24;40.43
21359;BME280;13506;50.852;20.632;2023-02-28T06:51:14;99621.00;;;12.00;38.67
21359;BME280;13506;50.852;20.632;2023-02-28T06:53:43;99619.34;;;12.13;33.88
21359;BME280;13506;50.852;20.632;2023-02-28T06:56:13;99616.16;;;12.67;35.51
21359;BME280;13506;50.852;20.632;2023-02-28T06:58:45;99613.44;;;13.11;34.04
21359;BME280;13506;50.852;20.632;2023-02-28T07:01:14;99613.53;;;13.66;33.38
21359;BME280;13506;50.852;20.632;2023-02-28T07:03:42;99609.50;;;14.00;34.87
21359;BME280;13506;50.852;20.632;2023-02-28T07:06:12;99602.31;;;14.29;33.54
21359;BME280;13506;50.852;20.632;2023-02-28T07:08:39;99604.19;;;14.27;31.17
21359;BME280;13506;50.852;20.632;2023-02-28T07:11:08;99611.34;;;14.25;31.96
21359;BME280;13506;50.852;20.632;2023-02-28T07:13:36;99616.41;;;13.48;30.62
21359;BME280;13506;50.852;20.632;2023-02-28T07:16:07;99615.84;;;13.43;32.58
21359;BME280;13506;50.852;20.632;2023-02-28T07:18:35;99614.13;;;12.86;34.02
21359;BME280;13506;50.852;20.632;2023-02-28T07:21:04;99615.88;;;12.12;34.11
21359;BME280;13506;50.852;20.632;2023-02-28T07:23:34;99619.81;;;11.43;35.20
21359;BME280;13506;50.852;20.632;2023-02-28T07:26:04;99623.47;;;10.41;34.56
21359;BME280;13506;50.852;20.632;2023-02-28T07:28:33;99624.19;;;9.73;37.72
21359;BME280;13506;50.852;20.632;2023-02-28T07:31:04;99627.16;;;8.50;37.24
21359;BME280;13506;50.852;20.632;2023-02-28T07:33:32;99617.97;;;9.01;38.87
21359;BME280;13506;50.852;20.632;2023-02-28T07:36:01;99635.97;;;8.05;37.39
21359;BME280;13506;50.852;20.632;2023-02-28T07:38:29;99633.38;;;8.05;38.73
21359;BME280;13506;50.852;20.632;2023-02-28T07:40:58;99633.09;;;8.54;39.46
21359;BME280;13506;50.852;20.632;2023-02-28T07:43:26;99636.03;;;7.83;37.73
21359;BME280;13506;50.852;20.632;2023-02-28T07:45:54;99620.41;;;7.83;38.26
21359;BME280;13506;50.852;20.632;2023-02-28T07:48:22;99631.03;;;7.55;38.35
21359;BME280;13506;50.852;20.632;2023-02-28T07:50:54;99627.28;;;8.06;38.26
21359;BME280;13506;50.852;20.632;2023-02-28T07:53:22;99632.91;;;8.38;37.95
21359;BME280;13506;50.852;20.632;2023-02-28T07:55:51;99631.53;;;7.86;37.39
21359;BME280;13506;50.852;20.632;2023-02-28T07:58:20;99625.50;;;7.64;37.67
21359;BME280;13506;50.852;20.632;2023-02-28T08:00:48;99620.81;;;7.28;36.62
21359;BME280;13506;50.852;20.632;2023-02-28T08:03:17;99623.00;;;6.43;36.65
21359;BME280;13506;50.852;20.632;2023-02-28T08:05:45;99625.44;;;6.73;36.94
21359;BME280;13506;50.852;20.632;2023-02-28T08:08:14;99618.63;;;6.45;37.39
21359;BME280;13506;50.852;20.632;2023-02-28T08:10:43;99616.53;;;6.78;37.73
21359;BME280;13506;50.852;20.632;2023-02-28T08:13:11;99614.25;;;6.71;37.38
21359;BME280;13506;50.852;20.632;2023-02-28T08:15:41;99611.91;;;6.38;36.92
21359;BME280;13506;50.852;20.632;2023-02-28T08:18:09;99615.72;;;6.53;37.55
21359;BME280;13506;50.852;20.632;2023-02-28T08:20:37;99614.50;;;6.63;38.73
21359;BME280;13506;50.852;20.632;2023-02-28T08:23:04;99615.69;;;6.78;38.57
21359;BME280;13506;50.852;20.632;2023-02-28T08:25:32;99620.41;;;6.18;38.42
21359;BME280;13506;50.852;20.632;2023-02-28T08:28:00;99617.94;;;5.03;39.43
21359;BME280;13506;50.852;20.632;2023-02-28T08:30:28;99626.91;;;4.90;40.29
21359;BME280;13506;50.852;20.632;2023-02-28T08:32:57;99626.44;;;5.37;40.58
21359;BME280;13506;50.852;20.632;2023-02-28T08:35:26;99624.81;;;5.62;39.99
21359;BME280;13506;50.852;20.632;2023-02-28T08:37:53;99630.53;;;5.45;38.97
21359;BME280;13506;50.852;20.632;2023-02-28T08:40:22;99633.84;;;6.04;39.86
21359;BME280;13506;50.852;20.632;2023-02-28T08:42:50;99617.16;;;6.61;38.20
21359;BME280;13506;50.852;20.632;2023-02-28T08:45:19;99621.94;;;6.48;37.92
21359;BME280;13506;50.852;20.632;2023-02-28T08:47:46;99615.13;;;6.44;38.06
21359;BME280;13506;50.852;20.632;2023-02-28T08:50:16;99616.31;;;6.61;38.46
21359;BME280;13506;50.852;20.632;2023-02-28T08:52:44;99610.91;;;7.60;38.89
21359;BME280;13506;50.852;20.632;2023-02-28T08:55:12;99611.38;;;8.12;36.18
21359;BME280;13506;50.852;20.632;2023-02-28T08:57:40;99604.94;;;8.62;36.32
21359;BME280;13506;50.852;20.632;2023-02-28T09:00:09;99606.88;;;9.34;35.80
21359;BME280;13506;50.852;20.632;2023-02-28T09:02:40;99612.03;;;9.17;33.47
21359;BME280;13506;50.852;20.632;2023-02-28T09:05:09;99613.53;;;9.03;32.78
21359;BME280;13506;50.852;20.632;2023-02-28T09:07:38;99603.97;;;9.40;34.81
21359;BME280;13506;50.852;20.632;2023-02-28T09:10:07;99615.06;;;8.88;33.49
21359;BME280;13506;50.852;20.632;2023-02-28T09:12:35;99619.06;;;8.15;34.20
21359;BME280;13506;50.852;20.632;2023-02-28T09:15:05;99625.47;;;7.20;34.52
21359;BME280;13506;50.852;20.632;2023-02-28T09:17:33;99612.78;;;7.34;35.43
21359;BME280;13506;50.852;20.632;2023-02-28T09:20:01;99617.75;;;8.25;36.02
21359;BME280;13506;50.852;20.632;2023-02-28T09:22:29;99610.13;;;9.39;35.01
21359;BME280;13506;50.852;20.632;2023-02-28T09:24:58;99619.78;;;10.10;33.12
21359;BME280;13506;50.852;20.632;2023-02-28T09:27:26;99619.63;;;9.96;33.16
21359;BME280;13506;50.852;20.632;2023-02-28T09:29:54;99608.91;;;9.27;32.97
21359;BME280;13506;50.852;20.632;2023-02-28T09:32:22;99618.03;;;7.55;33.88
21359;BME280;13506;50.852;20.632;2023-02-28T09:34:50;99615.97;;;7.63;35.21
21359;BME280;13506;50.852;20.632;2023-02-28T09:37:18;99614.47;;;7.57;35.00
21359;BME280;13506;50.852;20.632;2023-02-28T09:39:46;99614.88;;;7.01;34.51
21359;BME280;13506;50.852;20.632;2023-02-28T09:42:21;99608.13;;;7.19;35.82
21359;BME280;13506;50.852;20.632;2023-02-28T09:44:51;99596.38;;;7.97;37.01
21359;BME280;13506;50.852;20.632;2023-02-28T09:47:27;99591.47;;;8.90;34.29
21359;BME280;13506;50.852;20.632;2023-02-28T09:50:15;99598.06;;;6.12;34.50
21359;BME280;13506;50.852;20.632;2023-02-28T09:52:46;99595.13;;;7.19;34.89
21359;BME280;13506;50.852;20.632;2023-02-28T09:55:22;99592.56;;;7.83;35.41
21359;BME280;13506;50.852;20.632;2023-02-28T09:57:55;99592.88;;;7.98;35.06
21359;BME280;13506;50.852;20.632;2023-02-28T10:00:32;99589.03;;;7.20;34.12
21359;BME280;13506;50.852;20.632;2023-02-28T10:03:12;99592.22;;;6.56;35.71
21359;BME280;13506;50.852;20.632;2023-02-28T10:05:50;99587.63;;;6.39;36.87
21359;BME280;13506;50.852;20.632;2023-02-28T10:08:25;99595.47;;;6.62;36.67
21359;BME280;13506;50.852;20.632;2023-02-28T10:10:57;99599.03;;;6.35;37.54
21359;BME280;13506;50.852;20.632;2023-02-28T10:13:33;99594.88;;;6.54;37.04
21359;BME280;13506;50.852;20.632;2023-02-28T10:16:06;99596.66;;;7.24;38.46
21359;BME280;13506;50.852;20.632;2023-02-28T10:18:42;99593.72;;;8.39;36.64
21359;BME280;13506;50.852;20.632;2023-02-28T10:21:20;99584.69;;;9.43;35.00
21359;BME280;13506;50.852;20.632;2023-02-28T10:23:49;99587.75;;;10.40;34.30
21359;BME280;13506;50.852;20.632;2023-02-28T10:26:20;99575.44;;;11.24;33.78
21359;BME280;13506;50.852;20.632;2023-02-28T10:28:53;99578.97;;;11.07;31.69
21359;BME280;13506;50.852;20.632;2023-02-28T10:31:21;99585.22;;;11.21;31.02
21359;BME280;13506;50.852;20.632;2023-02-28T10:33:50;99585.13;;;9.70;31.63
21359;BME280;13506;50.852;20.632;2023-02-28T10:36:21;99588.97;;;8.08;33.70
21359;BME280;13506;50.852;20.632;2023-02-28T10:38:49;99588.34;;;7.59;34.22
21359;BME280;13506;50.852;20.632;2023-02-28T10:41:29;99580.69;;;7.98;35.30
21359;BME280;13506;50.852;20.632;2023-02-28T10:44:17;99573.25;;;8.30;33.84
21359;BME280;13506;50.852;20.632;2023-02-28T10:46:47;99574.47;;;7.80;34.61
21359;BME280;13506;50.852;20.632;2023-02-28T10:49:19;99577.47;;;7.27;35.62
21359;BME280;13506;50.852;20.632;2023-02-28T10:51:52;99579.34;;;6.76;36.49
21359;BME280;13506;50.852;20.632;2023-02-28T10:54:22;99581.25;;;6.22;37.15
21359;BME280;13506;50.852;20.632;2023-02-28T10:57:17;99587.78;;;5.56;36.95
21359;BME280;13506;50.852;20.632;2023-02-28T10:59:51;99575.44;;;6.16;37.32
21359;BME280;13506;50.852;20.632;2023-02-28T11:02:36;99569.06;;;6.49;37.00
21359;BME280;13506;50.852;20.632;2023-02-28T11:05:26;99579.41;;;7.22;36.75
21359;BME280;13506;50.852;20.632;2023-02-28T11:07:56;99564.06;;;7.80;36.00
21359;BME280;13506;50.852;20.632;2023-02-28T11:10:27;99565.91;;;7.34;35.79
21359;BME280;13506;50.852;20.632;2023-02-28T11:12:57;99564.59;;;6.77;37.02
21359;BME280;13506;50.852;20.632;2023-02-28T11:15:29;99569.25;;;6.68;37.24
21359;BME280;13506;50.852;20.632;2023-02-28T11:18:00;99568.94;;;6.53;36.81
21359;BME280;13506;50.852;20.632;2023-02-28T11:20:30;99566.50;;;6.72;37.02
21359;BME280;13506;50.852;20.632;2023-02-28T11:23:02;99556.88;;;7.21;37.20
21359;BME280;13506;50.852;20.632;2023-02-28T11:25:33;99563.09;;;7.61;36.19
21359;BME280;13506;50.852;20.632;2023-02-28T11:28:04;99558.09;;;7.34;35.95
21359;BME280;13506;50.852;20.632;2023-02-28T11:30:36;99558.94;;;6.89;35.48
21359;BME280;13506;50.852;20.632;2023-02-28T11:33:27;99554.53;;;6.67;36.47
21359;BME280;13506;50.852;20.632;2023-02-28T11:35:58;99557.59;;;6.79;36.67
21359;BME280;13506;50.852;20.632;2023-02-28T11:38:28;99550.28;;;6.65;35.83
21359;BME280;13506;50.852;20.632;2023-02-28T11:44:10;99542.47;;;6.41;37.37
21359;BME280;13506;50.852;20.632;2023-02-28T11:46:49;99548.44;;;6.68;36.66
21359;BME280;13506;50.852;20.632;2023-02-28T11:49:37;99552.50;;;6.76;36.51
21359;BME280;13506;50.852;20.632;2023-02-28T11:52:21;99544.88;;;6.71;36.93
21359;BME280;13506;50.852;20.632;2023-02-28T11:58:05;99542.31;;;6.69;37.42
21359;BME280;13506;50.852;20.632;2023-02-28T12:04:01;99546.78;;;7.35;36.58
21359;BME280;13506;50.852;20.632;2023-02-28T12:06:38;99537.13;;;6.69;36.72
21359;BME280;13506;50.852;20.632;2023-02-28T12:09:28;99530.09;;;6.48;38.21
21359;BME280;13506;50.852;20.632;2023-02-28T12:12:05;99525.66;;;6.75;37.89
21359;BME280;13506;50.852;20.632;2023-02-28T12:15:05;99521.97;;;7.04;37.67
21359;BME280;13506;50.852;20.632;2023-02-28T12:17:51;99519.59;;;6.75;36.71
21359;BME280;13506;50.852;20.632;2023-02-28T12:20:31;99519.66;;;6.01;38.76
21359;BME280;13506;50.852;20.632;2023-02-28T12:23:19;99528.75;;;5.87;39.24
21359;BME280;13506;50.852;20.632;2023-02-28T12:26:04;99524.44;;;5.88;37.74
21359;BME280;13506;50.852;20.632;2023-02-28T12:28:40;99515.97;;;5.56;38.75
21359;BME280;13506;50.852;20.632;2023-02-28T12:31:14;99510.03;;;5.53;38.12
21359;BME280;13506;50.852;20.632;2023-02-28T12:33:50;99523.31;;;4.57;40.44
21359;BME280;13506;50.852;20.632;2023-02-28T12:36:21;99520.47;;;4.35;41.82
21359;BME280;13506;50.852;20.632;2023-02-28T12:38:55;99523.19;;;4.31;42.02
21359;BME280;13506;50.852;20.632;2023-02-28T12:41:29;99510.59;;;4.18;42.56
21359;BME280;13506;50.852;20.632;2023-02-28T12:44:04;99511.69;;;4.39;41.59
21359;BME280;13506;50.852;20.632;2023-02-28T12:46:36;99506.50;;;4.71;40.69
21359;BME280;13506;50.852;20.632;2023-02-28T12:49:10;99499.38;;;5.07;41.50
21359;BME280;13506;50.852;20.632;2023-02-28T12:51:44;99492.13;;;5.18;40.93
21359;BME280;13506;50.852;20.632;2023-02-28T12:54:21;99494.63;;;5.48;39.76
21359;BME280;13506;50.852;20.632;2023-02-28T12:57:00;99483.94;;;5.82;38.95
21359;BME280;13506;50.852;20.632;2023-02-28T12:59:37;99480.22;;;5.64;39.72
21359;BME280;13506;50.852;20.632;2023-02-28T13:05:38;99479.00;;;5.50;39.41
21359;BME280;13506;50.852;20.632;2023-02-28T13:08:51;99485.28;;;5.42;40.42
21359;BME280;13506;50.852;20.632;2023-02-28T13:11:28;99480.25;;;5.38;39.47
21359;BME280;13506;50.852;20.632;2023-02-28T13:14:00;99482.75;;;5.66;39.55
21359;BME280;13506;50.852;20.632;2023-02-28T13:16:56;99472.28;;;5.94;38.87
21359;BME280;13506;50.852;20.632;2023-02-28T13:19:27;99468.91;;;5.92;39.03
21359;BME280;13506;50.852;20.632;2023-02-28T13:21:57;99473.63;;;6.04;38.96
21359;BME280;13506;50.852;20.632;2023-02-28T13:24:46;99470.31;;;5.51;39.17
21359;BME280;13506;50.852;20.632;2023-02-28T13:27:37;99469.47;;;5.50;38.82
21359;BME280;13506;50.852;20.632;2023-02-28T13:33:46;99469.34;;;5.53;39.87
21359;BME280;13506;50.852;20.632;2023-02-28T13:36:32;99462.59;;;5.22;38.85
21359;BME280;13506;50.852;20.632;2023-02-28T13:39:02;99456.94;;;5.36;39.09
21359;BME280;13506;50.852;20.632;2023-02-28T13:41:56;99466.69;;;5.55;38.84
21359;BME280;13506;50.852;20.632;2023-02-28T13:44:25;99470.09;;;5.57;39.37